CPA685 VHHH-VABB
Flight info
| Callsign | CPA685 |
|---|---|
| Flight time | 5h 36m |
| Altitude | 36000 |
| Route | PECAN V10 SIKOU/K0913S1100 A202 ASSAD/K0915F360 A206 NALAO A206 LPB B465 CEA Q20 JJS/N0495F380 Q20 OPAKA EMRAK2A |
| Aircraft | B77W/H-SDE1E2E3FGHIJ2J3J4J5M1RWXY/LB1D1 |
Departure
| Time | 2026-04-30 07:24 |
|---|---|
| Airport | Hong Kong International Airport (VHHH) |
Arrival
| Time | 2026-04-30 13:01 |
|---|---|
| Airport | Chhatrapati Shivaji Maharaj International Airport (VABB) |
| Time | Latitude | Longitude | Altitude | Speed | Heading |
|---|---|---|---|---|---|
| 2026-04-30 06:59 | 22.30896 | 113.92460 | 40 ft | 0 kts | 115° |
| 2026-04-30 07:14 | 22.30906 | 113.92436 | 38 ft | 4 kts | 115° |
| 2026-04-30 07:14 | 22.30917 | 113.92412 | 37 ft | 2 kts | 115° |
| 2026-04-30 07:14 | 22.30929 | 113.92391 | 37 ft | 4 kts | 146° |
| 2026-04-30 07:15 | 22.30951 | 113.92385 | 37 ft | 4 kts | 201° |
| 2026-04-30 07:15 | 22.30974 | 113.92397 | 36 ft | 4 kts | 206° |
| 2026-04-30 07:15 | 22.30981 | 113.92400 | 36 ft | 0 kts | 206° |
| 2026-04-30 07:17 | 22.30915 | 113.92366 | 38 ft | 18 kts | 206° |
| 2026-04-30 07:18 | 22.30798 | 113.92330 | 40 ft | 18 kts | 165° |
| 2026-04-30 07:18 | 22.30701 | 113.92289 | 40 ft | 17 kts | 254° |
| 2026-04-30 07:18 | 22.30666 | 113.92169 | 40 ft | 17 kts | 251° |
| 2026-04-30 07:18 | 22.30625 | 113.92044 | 40 ft | 18 kts | 251° |
| 2026-04-30 07:19 | 22.30585 | 113.91917 | 40 ft | 18 kts | 251° |
| 2026-04-30 07:19 | 22.30535 | 113.91761 | 40 ft | 26 kts | 251° |
| 2026-04-30 07:19 | 22.30476 | 113.91578 | 40 ft | 26 kts | 251° |
| 2026-04-30 07:19 | 22.30417 | 113.91395 | 40 ft | 26 kts | 251° |
| 2026-04-30 07:20 | 22.30357 | 113.91212 | 40 ft | 26 kts | 250° |
| 2026-04-30 07:20 | 22.30298 | 113.91029 | 40 ft | 26 kts | 251° |
| 2026-04-30 07:20 | 22.30239 | 113.90846 | 40 ft | 26 kts | 251° |
| 2026-04-30 07:20 | 22.30180 | 113.90662 | 40 ft | 26 kts | 251° |
| 2026-04-30 07:21 | 22.30122 | 113.90482 | 40 ft | 26 kts | 251° |
| 2026-04-30 07:21 | 22.30062 | 113.90296 | 40 ft | 26 kts | 250° |
| 2026-04-30 07:21 | 22.30004 | 113.90116 | 40 ft | 26 kts | 251° |
| 2026-04-30 07:21 | 22.29945 | 113.89930 | 40 ft | 26 kts | 251° |
| 2026-04-30 07:22 | 22.29801 | 113.89747 | 40 ft | 13 kts | 163° |
| 2026-04-30 07:22 | 22.29714 | 113.89777 | 40 ft | 13 kts | 162° |
| 2026-04-30 07:22 | 22.29637 | 113.89810 | 40 ft | 7 kts | 134° |
| 2026-04-30 07:23 | 22.29641 | 113.89856 | 40 ft | 0 kts | 71° |
| 2026-04-30 07:23 | 22.29649 | 113.89879 | 40 ft | 23 kts | 71° |
| 2026-04-30 07:23 | 22.29800 | 113.90349 | 40 ft | 107 kts | 70° |
| 2026-04-30 07:23 | 22.30126 | 113.91350 | 40 ft | 173 kts | 71° |
| 2026-04-30 07:24 | 22.30541 | 113.92698 | 405 ft | 193 kts | 69° |
| 2026-04-30 07:24 | 22.31005 | 113.94093 | 1131 ft | 201 kts | 67° |
| 2026-04-30 07:24 | 22.31499 | 113.95539 | 1858 ft | 209 kts | 69° |
| 2026-04-30 07:24 | 22.31992 | 113.97080 | 2281 ft | 235 kts | 69° |
| 2026-04-30 07:25 | 22.32537 | 113.98798 | 2888 ft | 246 kts | 69° |
| 2026-04-30 07:25 | 22.33102 | 114.00575 | 3651 ft | 256 kts | 69° |
| 2026-04-30 07:25 | 22.33690 | 114.02443 | 4267 ft | 267 kts | 72° |
| 2026-04-30 07:25 | 22.33848 | 114.04494 | 4808 ft | 284 kts | 100° |
| 2026-04-30 07:26 | 22.33110 | 114.06448 | 5665 ft | 282 kts | 126° |
| 2026-04-30 07:26 | 22.31706 | 114.07927 | 6431 ft | 285 kts | 150° |
| 2026-04-30 07:26 | 22.29867 | 114.08706 | 7114 ft | 284 kts | 174° |
| 2026-04-30 07:26 | 22.27913 | 114.08747 | 7874 ft | 279 kts | 188° |
| 2026-04-30 07:27 | 22.25949 | 114.08664 | 8581 ft | 286 kts | 184° |
| 2026-04-30 07:27 | 22.23947 | 114.08659 | 9381 ft | 289 kts | 184° |
| 2026-04-30 07:27 | 22.21925 | 114.08654 | 10167 ft | 292 kts | 184° |
| 2026-04-30 07:27 | 22.19851 | 114.08638 | 10624 ft | 308 kts | 185° |
| 2026-04-30 07:28 | 22.17634 | 114.08826 | 10737 ft | 336 kts | 167° |
| 2026-04-30 07:28 | 22.15513 | 114.10067 | 10916 ft | 370 kts | 140° |
| 2026-04-30 07:28 | 22.13939 | 114.12376 | 11202 ft | 395 kts | 118° |
| 2026-04-30 07:28 | 22.12792 | 114.15125 | 11766 ft | 407 kts | 115° |
| 2026-04-30 07:29 | 22.11606 | 114.17939 | 12521 ft | 414 kts | 117° |
| 2026-04-30 07:29 | 22.10333 | 114.20740 | 13398 ft | 418 kts | 118° |
| 2026-04-30 07:29 | 22.09000 | 114.23552 | 14201 ft | 423 kts | 119° |
| 2026-04-30 07:29 | 22.07482 | 114.26269 | 14806 ft | 424 kts | 132° |
| 2026-04-30 07:30 | 22.02807 | 114.30095 | 15944 ft | 429 kts | 149° |
| 2026-04-30 07:30 | 22.00323 | 114.31868 | 16552 ft | 427 kts | 155° |
| 2026-04-30 07:30 | 21.97560 | 114.32840 | 17074 ft | 424 kts | 177° |
| 2026-04-30 07:31 | 21.94644 | 114.32725 | 17857 ft | 418 kts | 195° |
| 2026-04-30 07:31 | 21.91882 | 114.31816 | 18621 ft | 414 kts | 207° |
| 2026-04-30 07:31 | 21.89437 | 114.30227 | 19217 ft | 409 kts | 220° |
| 2026-04-30 07:31 | 21.87194 | 114.28297 | 19717 ft | 416 kts | 222° |
| 2026-04-30 07:32 | 21.84944 | 114.26308 | 20304 ft | 420 kts | 222° |
| 2026-04-30 07:32 | 21.82670 | 114.24304 | 20973 ft | 422 kts | 222° |
| 2026-04-30 07:32 | 21.80373 | 114.22305 | 21621 ft | 426 kts | 221° |
| 2026-04-30 07:32 | 21.78041 | 114.20300 | 22231 ft | 430 kts | 221° |
| 2026-04-30 07:33 | 21.75687 | 114.18293 | 22806 ft | 434 kts | 221° |
| 2026-04-30 07:33 | 21.73334 | 114.16293 | 23361 ft | 438 kts | 221° |
| 2026-04-30 07:33 | 21.70933 | 114.14255 | 23861 ft | 442 kts | 221° |
| 2026-04-30 07:33 | 21.68507 | 114.12197 | 24345 ft | 445 kts | 221° |
| 2026-04-30 07:34 | 21.66061 | 114.10134 | 24828 ft | 445 kts | 219° |
| 2026-04-30 07:34 | 21.63368 | 114.08436 | 25190 ft | 456 kts | 204° |
| 2026-04-30 07:34 | 21.60281 | 114.07568 | 25520 ft | 462 kts | 195° |
| 2026-04-30 07:34 | 21.57109 | 114.06865 | 25861 ft | 467 kts | 196° |
| 2026-04-30 07:35 | 21.53922 | 114.06095 | 26264 ft | 470 kts | 197° |
| 2026-04-30 07:35 | 21.50740 | 114.05280 | 26728 ft | 472 kts | 197° |
| 2026-04-30 07:35 | 21.47535 | 114.04445 | 27194 ft | 474 kts | 197° |
| 2026-04-30 07:35 | 21.44371 | 114.03567 | 27614 ft | 475 kts | 201° |
| 2026-04-30 07:36 | 21.41409 | 114.02067 | 27960 ft | 469 kts | 216° |
| 2026-04-30 07:36 | 21.38711 | 114.00067 | 28277 ft | 472 kts | 218° |
| 2026-04-30 07:36 | 21.36002 | 113.98034 | 28631 ft | 476 kts | 218° |
| 2026-04-30 07:36 | 21.33266 | 113.96021 | 29022 ft | 478 kts | 217° |
| 2026-04-30 07:37 | 21.30495 | 113.94025 | 29405 ft | 480 kts | 217° |
| 2026-04-30 07:37 | 21.27698 | 113.92041 | 29718 ft | 484 kts | 216° |
| 2026-04-30 07:37 | 21.24870 | 113.90049 | 30005 ft | 487 kts | 216° |
| 2026-04-30 07:37 | 21.22027 | 113.88051 | 30351 ft | 487 kts | 216° |
| 2026-04-30 07:38 | 21.19235 | 113.86089 | 30778 ft | 485 kts | 216° |
| 2026-04-30 07:38 | 21.16411 | 113.84101 | 31238 ft | 483 kts | 217° |
| 2026-04-30 07:38 | 21.13604 | 113.82123 | 31685 ft | 479 kts | 217° |
| 2026-04-30 07:38 | 21.11009 | 113.79906 | 31995 ft | 476 kts | 228° |
| 2026-04-30 07:39 | 21.08900 | 113.77205 | 32357 ft | 471 kts | 237° |
| 2026-04-30 07:39 | 21.07203 | 113.74224 | 32806 ft | 466 kts | 245° |
| 2026-04-30 07:39 | 21.06000 | 113.71034 | 33297 ft | 459 kts | 253° |
| 2026-04-30 07:39 | 21.04982 | 113.67788 | 33707 ft | 458 kts | 253° |
| 2026-04-30 07:40 | 21.03975 | 113.64555 | 34092 ft | 457 kts | 253° |
| 2026-04-30 07:40 | 21.02964 | 113.61329 | 34381 ft | 458 kts | 253° |
| 2026-04-30 07:40 | 21.01953 | 113.58142 | 34698 ft | 457 kts | 253° |
| 2026-04-30 07:40 | 21.00923 | 113.54925 | 35083 ft | 455 kts | 253° |
| 2026-04-30 07:41 | 20.99893 | 113.51738 | 35481 ft | 452 kts | 253° |
| 2026-04-30 07:41 | 20.98864 | 113.48567 | 35860 ft | 450 kts | 253° |
| 2026-04-30 07:41 | 20.98180 | 113.46462 | 36040 ft | 451 kts | 253° |
| 2026-04-30 07:42 | 20.95760 | 113.39030 | 36012 ft | 453 kts | 253° |
| 2026-04-30 07:42 | 20.94043 | 113.33768 | 36004 ft | 448 kts | 253° |
| 2026-04-30 07:43 | 20.91988 | 113.27474 | 36013 ft | 447 kts | 253° |
| 2026-04-30 07:43 | 20.89938 | 113.21201 | 36010 ft | 446 kts | 253° |
| 2026-04-30 07:44 | 20.87884 | 113.14924 | 36012 ft | 447 kts | 253° |
| 2026-04-30 07:44 | 20.85825 | 113.08641 | 36018 ft | 448 kts | 252° |
| 2026-04-30 07:45 | 20.83761 | 113.02351 | 36001 ft | 448 kts | 252° |
| 2026-04-30 07:45 | 20.81691 | 112.96054 | 35996 ft | 449 kts | 252° |
| 2026-04-30 07:46 | 20.79625 | 112.89776 | 36006 ft | 450 kts | 252° |
| 2026-04-30 07:46 | 20.77539 | 112.83447 | 36015 ft | 452 kts | 252° |
| 2026-04-30 07:47 | 20.75441 | 112.77090 | 36014 ft | 453 kts | 251° |
| 2026-04-30 07:47 | 20.73340 | 112.70731 | 36009 ft | 453 kts | 251° |
| 2026-04-30 07:48 | 20.71251 | 112.64421 | 36009 ft | 453 kts | 251° |
| 2026-04-30 07:48 | 20.69145 | 112.58066 | 36004 ft | 453 kts | 251° |
| 2026-04-30 07:49 | 20.67038 | 112.51714 | 36008 ft | 452 kts | 251° |
| 2026-04-30 07:49 | 20.64949 | 112.45428 | 36008 ft | 452 kts | 251° |
| 2026-04-30 07:50 | 20.62840 | 112.39091 | 36005 ft | 452 kts | 251° |
| 2026-04-30 07:50 | 20.60737 | 112.32779 | 36007 ft | 451 kts | 251° |
| 2026-04-30 07:51 | 20.58632 | 112.26465 | 36005 ft | 451 kts | 251° |
| 2026-04-30 07:51 | 20.56555 | 112.20166 | 35985 ft | 448 kts | 255° |
| 2026-04-30 07:51 | 20.56088 | 112.16930 | 36011 ft | 448 kts | 268° |
| 2026-04-30 07:52 | 20.56295 | 112.13603 | 36015 ft | 450 kts | 277° |
| 2026-04-30 07:52 | 20.57028 | 112.10340 | 36008 ft | 453 kts | 289° |
| 2026-04-30 07:52 | 20.58348 | 112.07293 | 36030 ft | 453 kts | 294° |
| 2026-04-30 07:53 | 20.61188 | 112.01247 | 36018 ft | 455 kts | 294° |
| 2026-04-30 07:53 | 20.63978 | 111.95207 | 36012 ft | 457 kts | 293° |
| 2026-04-30 07:54 | 20.66753 | 111.89082 | 36003 ft | 458 kts | 293° |
| 2026-04-30 07:54 | 20.69517 | 111.82942 | 36014 ft | 458 kts | 292° |
| 2026-04-30 07:55 | 20.72281 | 111.76795 | 36022 ft | 458 kts | 293° |
| 2026-04-30 07:55 | 20.75018 | 111.70706 | 36003 ft | 456 kts | 293° |
| 2026-04-30 07:56 | 20.77760 | 111.64598 | 36006 ft | 455 kts | 292° |
| 2026-04-30 07:56 | 20.80490 | 111.58511 | 36006 ft | 453 kts | 292° |
| 2026-04-30 07:57 | 20.82844 | 111.52330 | 36004 ft | 445 kts | 278° |
| 2026-04-30 07:57 | 20.82849 | 111.45761 | 36007 ft | 444 kts | 259° |
| 2026-04-30 07:58 | 20.80903 | 111.39507 | 36006 ft | 445 kts | 251° |
| 2026-04-30 07:58 | 20.78728 | 111.33269 | 36005 ft | 449 kts | 251° |
| 2026-04-30 07:59 | 20.76598 | 111.27016 | 36007 ft | 452 kts | 251° |
| 2026-04-30 07:59 | 20.74471 | 111.20694 | 36010 ft | 453 kts | 251° |
| 2026-04-30 08:00 | 20.71279 | 111.11193 | 36017 ft | 452 kts | 251° |
| 2026-04-30 08:00 | 20.69152 | 111.04880 | 36004 ft | 450 kts | 251° |
| 2026-04-30 08:01 | 20.67031 | 110.98592 | 36002 ft | 449 kts | 251° |
| 2026-04-30 08:01 | 20.64917 | 110.92333 | 36004 ft | 447 kts | 251° |
| 2026-04-30 08:02 | 20.61777 | 110.83000 | 36003 ft | 446 kts | 251° |
| 2026-04-30 08:03 | 20.57588 | 110.70522 | 36007 ft | 446 kts | 250° |
| 2026-04-30 08:04 | 20.55493 | 110.64301 | 36008 ft | 445 kts | 250° |
| 2026-04-30 08:04 | 20.53397 | 110.58082 | 36000 ft | 445 kts | 251° |
| 2026-04-30 08:05 | 20.51124 | 110.51932 | 36013 ft | 446 kts | 244° |
| 2026-04-30 08:05 | 20.47981 | 110.46255 | 36014 ft | 448 kts | 237° |
| 2026-04-30 08:06 | 20.44125 | 110.41035 | 36004 ft | 449 kts | 232° |
| 2026-04-30 08:06 | 20.40156 | 110.35904 | 36021 ft | 448 kts | 232° |
| 2026-04-30 08:07 | 20.36216 | 110.30759 | 35994 ft | 447 kts | 233° |
| 2026-04-30 08:07 | 20.32288 | 110.25607 | 35996 ft | 447 kts | 233° |
| 2026-04-30 08:08 | 20.28370 | 110.20454 | 35993 ft | 447 kts | 233° |
| 2026-04-30 08:08 | 20.24491 | 110.15276 | 36000 ft | 446 kts | 234° |
| 2026-04-30 08:09 | 20.20622 | 110.10101 | 36009 ft | 446 kts | 233° |
| 2026-04-30 08:09 | 20.16786 | 110.04983 | 36004 ft | 444 kts | 233° |
| 2026-04-30 08:10 | 20.12927 | 109.99842 | 35997 ft | 443 kts | 233° |
| 2026-04-30 08:10 | 20.09067 | 109.94709 | 35983 ft | 443 kts | 233° |
| 2026-04-30 08:11 | 20.05220 | 109.89595 | 35999 ft | 442 kts | 233° |
| 2026-04-30 08:11 | 20.01393 | 109.84512 | 35999 ft | 442 kts | 233° |
| 2026-04-30 08:12 | 19.97544 | 109.79406 | 35987 ft | 443 kts | 233° |
| 2026-04-30 08:12 | 19.93678 | 109.74281 | 35999 ft | 444 kts | 233° |
| 2026-04-30 08:13 | 19.89800 | 109.69144 | 35986 ft | 446 kts | 233° |
| 2026-04-30 08:13 | 19.85939 | 109.64034 | 35994 ft | 447 kts | 233° |
| 2026-04-30 08:14 | 19.82041 | 109.58880 | 35991 ft | 447 kts | 233° |
| 2026-04-30 08:14 | 19.78137 | 109.53722 | 35994 ft | 448 kts | 233° |
| 2026-04-30 08:15 | 19.74232 | 109.48568 | 35990 ft | 448 kts | 233° |
| 2026-04-30 08:15 | 19.70323 | 109.43412 | 35980 ft | 447 kts | 233° |
| 2026-04-30 08:16 | 19.66441 | 109.38297 | 35992 ft | 447 kts | 233° |
| 2026-04-30 08:16 | 19.62530 | 109.33148 | 35995 ft | 447 kts | 233° |
| 2026-04-30 08:17 | 19.58621 | 109.28004 | 35994 ft | 448 kts | 233° |
| 2026-04-30 08:17 | 19.54734 | 109.22893 | 35996 ft | 448 kts | 233° |
| 2026-04-30 08:18 | 19.50812 | 109.17751 | 35989 ft | 448 kts | 233° |
| 2026-04-30 08:18 | 19.46859 | 109.12641 | 35997 ft | 448 kts | 232° |
| 2026-04-30 08:19 | 19.42894 | 109.07530 | 35982 ft | 449 kts | 232° |
| 2026-04-30 08:19 | 19.38930 | 109.02416 | 35989 ft | 449 kts | 232° |
| 2026-04-30 08:20 | 19.34987 | 108.97328 | 35987 ft | 450 kts | 232° |
| 2026-04-30 08:20 | 19.31005 | 108.92193 | 35993 ft | 451 kts | 232° |
| 2026-04-30 08:21 | 19.27015 | 108.87052 | 35990 ft | 451 kts | 232° |
| 2026-04-30 08:21 | 19.23029 | 108.81917 | 35990 ft | 452 kts | 232° |
| 2026-04-30 08:22 | 19.19070 | 108.76806 | 35986 ft | 452 kts | 232° |
| 2026-04-30 08:22 | 19.15085 | 108.71664 | 35982 ft | 451 kts | 232° |
| 2026-04-30 08:23 | 19.11105 | 108.66530 | 35980 ft | 452 kts | 232° |
| 2026-04-30 08:23 | 19.07106 | 108.61379 | 35981 ft | 452 kts | 232° |
| 2026-04-30 08:24 | 19.03132 | 108.56265 | 35980 ft | 453 kts | 232° |
| 2026-04-30 08:24 | 18.99125 | 108.51112 | 35982 ft | 453 kts | 232° |
| 2026-04-30 08:25 | 18.95114 | 108.45958 | 35978 ft | 454 kts | 232° |
| 2026-04-30 08:25 | 18.91100 | 108.40804 | 35985 ft | 454 kts | 232° |
| 2026-04-30 08:26 | 18.87087 | 108.35657 | 35983 ft | 453 kts | 232° |
| 2026-04-30 08:26 | 18.83101 | 108.30547 | 35973 ft | 453 kts | 231° |
| 2026-04-30 08:27 | 18.79081 | 108.25399 | 35982 ft | 454 kts | 232° |
| 2026-04-30 08:27 | 18.75058 | 108.20252 | 35980 ft | 454 kts | 231° |
| 2026-04-30 08:28 | 18.71026 | 108.15097 | 35980 ft | 455 kts | 231° |
| 2026-04-30 08:28 | 18.67009 | 108.09964 | 35981 ft | 455 kts | 231° |
| 2026-04-30 08:29 | 18.62974 | 108.04814 | 35976 ft | 455 kts | 231° |
| 2026-04-30 08:29 | 18.59609 | 108.00522 | 35982 ft | 456 kts | 231° |
| 2026-04-30 08:30 | 18.55586 | 107.95394 | 35969 ft | 457 kts | 232° |
| 2026-04-30 08:30 | 18.51525 | 107.90221 | 35979 ft | 459 kts | 232° |
| 2026-04-30 08:31 | 18.47439 | 107.85021 | 35991 ft | 461 kts | 232° |
| 2026-04-30 08:31 | 18.43333 | 107.79799 | 35988 ft | 463 kts | 232° |
| 2026-04-30 08:32 | 18.39206 | 107.74555 | 35986 ft | 465 kts | 232° |
| 2026-04-30 08:32 | 18.35863 | 107.68892 | 35978 ft | 459 kts | 253° |
| 2026-04-30 08:33 | 18.35234 | 107.62236 | 35983 ft | 461 kts | 277° |
| 2026-04-30 08:33 | 18.36595 | 107.55649 | 35987 ft | 460 kts | 280° |
| 2026-04-30 08:34 | 18.37979 | 107.49088 | 35988 ft | 462 kts | 279° |
| 2026-04-30 08:34 | 18.39315 | 107.42460 | 35987 ft | 463 kts | 279° |
| 2026-04-30 08:35 | 18.40626 | 107.35817 | 35992 ft | 463 kts | 279° |
| 2026-04-30 08:35 | 18.41926 | 107.29215 | 35990 ft | 462 kts | 279° |
| 2026-04-30 08:36 | 18.43231 | 107.22584 | 35989 ft | 461 kts | 279° |
| 2026-04-30 08:36 | 18.44530 | 107.15976 | 35990 ft | 460 kts | 279° |
| 2026-04-30 08:37 | 18.45824 | 107.09378 | 35990 ft | 460 kts | 279° |
| 2026-04-30 08:37 | 18.47115 | 107.02780 | 36004 ft | 459 kts | 279° |
| 2026-04-30 08:38 | 18.48398 | 106.96185 | 35997 ft | 459 kts | 279° |
| 2026-04-30 08:38 | 18.49678 | 106.89588 | 35997 ft | 459 kts | 279° |
| 2026-04-30 08:39 | 18.50947 | 106.83033 | 35995 ft | 459 kts | 279° |
| 2026-04-30 08:39 | 18.52222 | 106.76437 | 36003 ft | 460 kts | 279° |
| 2026-04-30 08:40 | 18.53498 | 106.69823 | 36007 ft | 460 kts | 279° |
| 2026-04-30 08:40 | 18.54774 | 106.63198 | 36002 ft | 461 kts | 279° |
| 2026-04-30 08:41 | 18.56045 | 106.56609 | 36006 ft | 462 kts | 279° |
| 2026-04-30 08:41 | 18.57349 | 106.49976 | 36003 ft | 463 kts | 279° |
| 2026-04-30 08:42 | 18.58662 | 106.43316 | 36006 ft | 463 kts | 279° |
| 2026-04-30 08:42 | 18.59968 | 106.36655 | 36006 ft | 464 kts | 279° |
| 2026-04-30 08:43 | 18.61262 | 106.30032 | 36006 ft | 464 kts | 279° |
| 2026-04-30 08:43 | 18.62563 | 106.23362 | 36008 ft | 464 kts | 279° |
| 2026-04-30 08:44 | 18.63861 | 106.16696 | 36012 ft | 464 kts | 279° |
| 2026-04-30 08:44 | 18.65157 | 106.10025 | 36011 ft | 464 kts | 279° |
| 2026-04-30 08:45 | 18.66442 | 106.03352 | 36011 ft | 464 kts | 279° |
| 2026-04-30 08:45 | 18.67708 | 105.96721 | 36012 ft | 463 kts | 279° |
| 2026-04-30 08:46 | 18.68980 | 105.90054 | 36007 ft | 463 kts | 279° |
| 2026-04-30 08:46 | 18.70250 | 105.83391 | 36011 ft | 463 kts | 279° |
| 2026-04-30 08:47 | 18.71518 | 105.76720 | 36008 ft | 463 kts | 279° |
| 2026-04-30 08:47 | 18.72777 | 105.70091 | 36009 ft | 463 kts | 279° |
| 2026-04-30 08:48 | 18.74450 | 105.63512 | 36020 ft | 465 kts | 288° |
| 2026-04-30 08:48 | 18.76692 | 105.57103 | 36012 ft | 465 kts | 288° |
| 2026-04-30 08:49 | 18.78933 | 105.50694 | 36010 ft | 464 kts | 288° |
| 2026-04-30 08:49 | 18.81142 | 105.44297 | 36028 ft | 464 kts | 288° |
| 2026-04-30 08:50 | 18.83338 | 105.37892 | 36015 ft | 463 kts | 288° |
| 2026-04-30 08:50 | 18.85509 | 105.31549 | 36018 ft | 462 kts | 288° |
| 2026-04-30 08:51 | 18.87688 | 105.25175 | 36028 ft | 461 kts | 288° |
| 2026-04-30 08:51 | 18.89862 | 105.18809 | 36021 ft | 460 kts | 288° |
| 2026-04-30 08:52 | 18.92032 | 105.12448 | 36020 ft | 459 kts | 288° |
| 2026-04-30 08:52 | 18.94194 | 105.06101 | 36024 ft | 459 kts | 288° |
| 2026-04-30 08:53 | 18.96356 | 104.99748 | 36026 ft | 459 kts | 288° |
| 2026-04-30 08:53 | 18.98499 | 104.93441 | 36023 ft | 459 kts | 288° |
| 2026-04-30 08:54 | 19.00655 | 104.87086 | 36030 ft | 459 kts | 288° |
| 2026-04-30 08:54 | 19.02809 | 104.80736 | 36037 ft | 459 kts | 288° |
| 2026-04-30 08:55 | 19.04949 | 104.74414 | 36031 ft | 459 kts | 288° |
| 2026-04-30 08:55 | 19.07102 | 104.68047 | 36031 ft | 460 kts | 288° |
| 2026-04-30 08:56 | 19.09257 | 104.61662 | 36034 ft | 461 kts | 288° |
| 2026-04-30 08:56 | 19.11415 | 104.55265 | 36018 ft | 462 kts | 288° |
| 2026-04-30 08:57 | 19.13555 | 104.48912 | 36030 ft | 461 kts | 288° |
| 2026-04-30 08:57 | 19.15708 | 104.42511 | 36035 ft | 461 kts | 287° |
| 2026-04-30 08:58 | 19.17858 | 104.36115 | 36022 ft | 461 kts | 287° |
| 2026-04-30 08:58 | 19.19990 | 104.29758 | 36020 ft | 460 kts | 287° |
| 2026-04-30 08:59 | 19.22126 | 104.23383 | 36014 ft | 459 kts | 288° |
| 2026-04-30 08:59 | 19.24260 | 104.17007 | 36034 ft | 459 kts | 288° |
| 2026-04-30 09:00 | 19.26391 | 104.10629 | 36018 ft | 460 kts | 287° |
| 2026-04-30 09:00 | 19.28526 | 104.04231 | 36023 ft | 461 kts | 287° |
| 2026-04-30 09:01 | 19.30662 | 103.97824 | 36009 ft | 462 kts | 287° |
| 2026-04-30 09:01 | 19.32787 | 103.91438 | 35989 ft | 462 kts | 287° |
| 2026-04-30 09:02 | 19.35951 | 103.81779 | 36000 ft | 462 kts | 287° |
| 2026-04-30 09:02 | 19.38041 | 103.75380 | 35993 ft | 462 kts | 287° |
| 2026-04-30 09:03 | 19.40147 | 103.68931 | 35984 ft | 462 kts | 287° |
| 2026-04-30 09:03 | 19.42250 | 103.62485 | 35975 ft | 463 kts | 287° |
| 2026-04-30 09:04 | 19.44382 | 103.56080 | 35974 ft | 463 kts | 288° |
| 2026-04-30 09:04 | 19.46586 | 103.49656 | 35981 ft | 464 kts | 288° |
| 2026-04-30 09:05 | 19.48794 | 103.43212 | 35981 ft | 465 kts | 288° |
| 2026-04-30 09:05 | 19.50977 | 103.36804 | 35975 ft | 465 kts | 288° |
| 2026-04-30 09:06 | 19.53177 | 103.30322 | 35974 ft | 466 kts | 288° |
| 2026-04-30 09:06 | 19.55361 | 103.23877 | 35970 ft | 466 kts | 288° |
| 2026-04-30 09:07 | 19.57554 | 103.17398 | 35959 ft | 466 kts | 288° |
| 2026-04-30 09:07 | 19.59746 | 103.10915 | 35957 ft | 466 kts | 288° |
| 2026-04-30 09:08 | 19.61933 | 103.04438 | 35953 ft | 466 kts | 288° |
| 2026-04-30 09:08 | 19.64104 | 102.97998 | 35956 ft | 466 kts | 288° |
| 2026-04-30 09:09 | 19.66285 | 102.91523 | 35947 ft | 466 kts | 288° |
| 2026-04-30 09:09 | 19.68468 | 102.85030 | 35955 ft | 466 kts | 288° |
| 2026-04-30 09:10 | 19.70648 | 102.78538 | 35951 ft | 467 kts | 288° |
| 2026-04-30 09:10 | 19.72829 | 102.72036 | 35949 ft | 468 kts | 288° |
| 2026-04-30 09:11 | 19.74996 | 102.65565 | 35954 ft | 469 kts | 288° |
| 2026-04-30 09:11 | 19.77181 | 102.59031 | 35936 ft | 469 kts | 288° |
| 2026-04-30 09:12 | 19.79363 | 102.52499 | 35935 ft | 469 kts | 288° |
| 2026-04-30 09:12 | 19.81544 | 102.45962 | 35921 ft | 469 kts | 288° |
| 2026-04-30 09:13 | 19.83705 | 102.39474 | 35917 ft | 468 kts | 288° |
| 2026-04-30 09:13 | 19.85877 | 102.32942 | 35909 ft | 469 kts | 288° |
| 2026-04-30 09:14 | 19.88049 | 102.26403 | 35929 ft | 469 kts | 288° |
| 2026-04-30 09:14 | 19.90220 | 102.19866 | 35919 ft | 469 kts | 288° |
| 2026-04-30 09:15 | 19.92967 | 102.13554 | 35882 ft | 472 kts | 298° |
| 2026-04-30 09:15 | 19.96245 | 102.07552 | 35889 ft | 472 kts | 298° |
| 2026-04-30 09:16 | 19.99542 | 102.01510 | 35898 ft | 473 kts | 298° |
| 2026-04-30 09:16 | 20.02825 | 101.95432 | 35911 ft | 473 kts | 298° |
| 2026-04-30 09:17 | 20.06095 | 101.89345 | 35938 ft | 473 kts | 297° |
| 2026-04-30 09:17 | 20.08808 | 101.84283 | 35938 ft | 474 kts | 298° |
| 2026-04-30 09:18 | 20.12077 | 101.78181 | 35960 ft | 475 kts | 298° |
| 2026-04-30 09:18 | 20.15362 | 101.72045 | 35948 ft | 476 kts | 298° |
| 2026-04-30 09:19 | 20.18621 | 101.65952 | 35946 ft | 477 kts | 298° |
| 2026-04-30 09:19 | 20.21909 | 101.59798 | 35961 ft | 478 kts | 298° |
| 2026-04-30 09:20 | 20.25202 | 101.53630 | 35968 ft | 479 kts | 298° |
| 2026-04-30 09:20 | 20.28474 | 101.47493 | 35972 ft | 479 kts | 298° |
| 2026-04-30 09:21 | 20.31762 | 101.41318 | 35983 ft | 479 kts | 298° |
| 2026-04-30 09:21 | 20.35053 | 101.35132 | 35967 ft | 479 kts | 298° |
| 2026-04-30 09:22 | 20.38336 | 101.28954 | 35988 ft | 479 kts | 298° |
| 2026-04-30 09:22 | 20.41620 | 101.22768 | 35966 ft | 478 kts | 298° |
| 2026-04-30 09:23 | 20.44873 | 101.16632 | 35988 ft | 478 kts | 298° |
| 2026-04-30 09:23 | 20.48146 | 101.10453 | 35986 ft | 478 kts | 298° |
| 2026-04-30 09:24 | 20.51421 | 101.04263 | 35980 ft | 479 kts | 298° |
| 2026-04-30 09:24 | 20.54698 | 100.98062 | 35975 ft | 479 kts | 298° |
| 2026-04-30 09:25 | 20.57953 | 100.91895 | 35992 ft | 479 kts | 298° |
| 2026-04-30 09:25 | 20.61229 | 100.85684 | 35977 ft | 480 kts | 298° |
| 2026-04-30 09:26 | 20.64505 | 100.79464 | 35972 ft | 480 kts | 298° |
| 2026-04-30 09:26 | 20.67757 | 100.73284 | 35964 ft | 480 kts | 298° |
| 2026-04-30 09:27 | 20.71028 | 100.67059 | 35959 ft | 480 kts | 298° |
| 2026-04-30 09:27 | 20.74298 | 100.60829 | 35961 ft | 480 kts | 298° |
| 2026-04-30 09:28 | 20.77563 | 100.54603 | 35942 ft | 480 kts | 298° |
| 2026-04-30 09:28 | 20.80763 | 100.48391 | 35948 ft | 480 kts | 295° |
| 2026-04-30 09:29 | 20.83148 | 100.41749 | 35950 ft | 479 kts | 285° |
| 2026-04-30 09:29 | 20.84971 | 100.34880 | 35948 ft | 479 kts | 285° |
| 2026-04-30 09:30 | 20.86790 | 100.28019 | 35951 ft | 480 kts | 285° |
| 2026-04-30 09:30 | 20.88633 | 100.21156 | 35936 ft | 480 kts | 285° |
| 2026-04-30 09:31 | 20.90477 | 100.14332 | 35938 ft | 481 kts | 285° |
| 2026-04-30 09:31 | 20.92338 | 100.07442 | 35939 ft | 482 kts | 285° |
| 2026-04-30 09:32 | 20.94199 | 100.00541 | 35939 ft | 483 kts | 285° |
| 2026-04-30 09:32 | 20.96063 | 99.93612 | 35936 ft | 484 kts | 285° |
| 2026-04-30 09:33 | 20.97921 | 99.86689 | 35936 ft | 484 kts | 285° |
| 2026-04-30 09:33 | 20.99769 | 99.79800 | 35941 ft | 484 kts | 284° |
| 2026-04-30 09:34 | 21.01624 | 99.72862 | 35938 ft | 484 kts | 285° |
| 2026-04-30 09:34 | 21.03479 | 99.65919 | 35934 ft | 484 kts | 284° |
| 2026-04-30 09:35 | 21.05329 | 99.58979 | 35931 ft | 484 kts | 284° |
| 2026-04-30 09:35 | 21.07162 | 99.52092 | 35927 ft | 484 kts | 284° |
| 2026-04-30 09:36 | 21.09007 | 99.45147 | 35923 ft | 485 kts | 284° |
| 2026-04-30 09:36 | 21.10849 | 99.38201 | 35906 ft | 485 kts | 285° |
| 2026-04-30 09:37 | 21.12691 | 99.31245 | 35914 ft | 484 kts | 284° |
| 2026-04-30 09:37 | 21.14514 | 99.24346 | 35904 ft | 484 kts | 284° |
| 2026-04-30 09:38 | 21.16345 | 99.17403 | 35894 ft | 483 kts | 284° |
| 2026-04-30 09:38 | 21.18176 | 99.10450 | 35889 ft | 483 kts | 284° |
| 2026-04-30 09:39 | 21.19991 | 99.03545 | 35871 ft | 484 kts | 284° |
| 2026-04-30 09:39 | 21.21813 | 98.96600 | 35871 ft | 484 kts | 284° |
| 2026-04-30 09:40 | 21.23636 | 98.89640 | 35866 ft | 484 kts | 284° |
| 2026-04-30 09:40 | 21.25450 | 98.82702 | 35863 ft | 486 kts | 284° |
| 2026-04-30 09:41 | 21.27275 | 98.75706 | 35857 ft | 488 kts | 284° |
| 2026-04-30 09:41 | 21.29103 | 98.68689 | 35867 ft | 489 kts | 284° |
| 2026-04-30 09:42 | 21.30930 | 98.61661 | 35850 ft | 488 kts | 284° |
| 2026-04-30 09:42 | 21.32751 | 98.54645 | 35859 ft | 487 kts | 284° |
| 2026-04-30 09:43 | 21.34549 | 98.47701 | 35870 ft | 486 kts | 284° |
| 2026-04-30 09:43 | 21.36356 | 98.40712 | 35865 ft | 485 kts | 284° |
| 2026-04-30 09:44 | 21.38157 | 98.33734 | 35877 ft | 484 kts | 284° |
| 2026-04-30 09:44 | 21.39951 | 98.26769 | 35876 ft | 483 kts | 285° |
| 2026-04-30 09:45 | 21.41730 | 98.19854 | 35881 ft | 482 kts | 285° |
| 2026-04-30 09:45 | 21.43512 | 98.12910 | 35883 ft | 481 kts | 285° |
| 2026-04-30 09:46 | 21.45277 | 98.06020 | 35879 ft | 481 kts | 285° |
| 2026-04-30 09:46 | 21.47053 | 97.99076 | 35893 ft | 481 kts | 285° |
| 2026-04-30 09:47 | 21.48819 | 97.92153 | 35889 ft | 480 kts | 285° |
| 2026-04-30 09:47 | 21.50572 | 97.85271 | 35895 ft | 480 kts | 285° |
| 2026-04-30 09:48 | 21.52330 | 97.78358 | 35889 ft | 479 kts | 285° |
| 2026-04-30 09:48 | 21.54083 | 97.71452 | 35894 ft | 479 kts | 285° |
| 2026-04-30 09:49 | 21.55832 | 97.64550 | 35896 ft | 478 kts | 285° |
| 2026-04-30 09:49 | 21.57580 | 97.57637 | 35878 ft | 479 kts | 285° |
| 2026-04-30 09:50 | 21.59310 | 97.50782 | 35889 ft | 478 kts | 285° |
| 2026-04-30 09:50 | 21.61046 | 97.43889 | 35882 ft | 477 kts | 285° |
| 2026-04-30 09:51 | 21.62779 | 97.36998 | 35893 ft | 477 kts | 285° |
| 2026-04-30 09:51 | 21.64507 | 97.30113 | 35882 ft | 477 kts | 285° |
| 2026-04-30 09:52 | 21.66232 | 97.23230 | 35873 ft | 477 kts | 284° |
| 2026-04-30 09:52 | 21.67945 | 97.16379 | 35883 ft | 477 kts | 284° |
| 2026-04-30 09:53 | 21.69665 | 97.09484 | 35870 ft | 477 kts | 284° |
| 2026-04-30 09:53 | 21.71384 | 97.02584 | 35871 ft | 477 kts | 284° |
| 2026-04-30 09:54 | 21.73100 | 96.95682 | 35875 ft | 477 kts | 284° |
| 2026-04-30 09:54 | 21.74814 | 96.88772 | 35871 ft | 478 kts | 284° |
| 2026-04-30 09:55 | 21.76516 | 96.81905 | 35880 ft | 477 kts | 283° |
| 2026-04-30 09:55 | 21.78223 | 96.74999 | 35868 ft | 475 kts | 283° |
| 2026-04-30 09:56 | 21.79905 | 96.68184 | 35880 ft | 472 kts | 283° |
| 2026-04-30 09:56 | 21.81581 | 96.61376 | 35885 ft | 470 kts | 283° |
| 2026-04-30 09:57 | 21.83249 | 96.54588 | 35874 ft | 469 kts | 283° |
| 2026-04-30 09:57 | 21.84911 | 96.47810 | 35874 ft | 468 kts | 283° |
| 2026-04-30 09:58 | 21.86573 | 96.41025 | 35889 ft | 468 kts | 282° |
| 2026-04-30 09:58 | 21.88222 | 96.34279 | 35863 ft | 468 kts | 282° |
| 2026-04-30 09:59 | 21.91529 | 96.20705 | 35854 ft | 467 kts | 282° |
| 2026-04-30 10:00 | 21.93688 | 96.10540 | 35847 ft | 464 kts | 274° |
| 2026-04-30 10:01 | 21.94555 | 96.00159 | 35843 ft | 464 kts | 273° |
| 2026-04-30 10:02 | 21.95428 | 95.89757 | 35834 ft | 465 kts | 273° |
| 2026-04-30 10:02 | 21.96026 | 95.82800 | 35839 ft | 466 kts | 273° |
| 2026-04-30 10:03 | 21.96622 | 95.75883 | 35834 ft | 467 kts | 273° |
| 2026-04-30 10:03 | 21.97219 | 95.68913 | 35837 ft | 467 kts | 273° |
| 2026-04-30 10:04 | 21.97814 | 95.61927 | 35828 ft | 467 kts | 273° |
| 2026-04-30 10:04 | 21.98401 | 95.54992 | 35829 ft | 467 kts | 272° |
| 2026-04-30 10:05 | 21.98988 | 95.48018 | 35835 ft | 467 kts | 272° |
| 2026-04-30 10:05 | 21.99572 | 95.41046 | 35824 ft | 467 kts | 272° |
| 2026-04-30 10:06 | 22.00149 | 95.34122 | 35830 ft | 466 kts | 272° |
| 2026-04-30 10:06 | 22.00727 | 95.27155 | 35832 ft | 466 kts | 272° |
| 2026-04-30 10:07 | 22.01205 | 95.21363 | 35831 ft | 466 kts | 272° |
| 2026-04-30 10:07 | 22.01777 | 95.14400 | 35832 ft | 466 kts | 272° |
| 2026-04-30 10:08 | 22.02347 | 95.07424 | 35829 ft | 467 kts | 272° |
| 2026-04-30 10:08 | 22.02914 | 95.00453 | 35833 ft | 467 kts | 272° |
| 2026-04-30 10:09 | 22.03475 | 94.93518 | 35840 ft | 467 kts | 272° |
| 2026-04-30 10:09 | 22.04036 | 94.86547 | 35839 ft | 467 kts | 272° |
| 2026-04-30 10:10 | 22.04594 | 94.79565 | 35833 ft | 466 kts | 272° |
| 2026-04-30 10:10 | 22.05148 | 94.72605 | 35835 ft | 466 kts | 272° |
| 2026-04-30 10:11 | 22.05699 | 94.65645 | 35848 ft | 465 kts | 272° |
| 2026-04-30 10:11 | 22.06243 | 94.58729 | 35849 ft | 465 kts | 272° |
| 2026-04-30 10:12 | 22.06787 | 94.51776 | 35848 ft | 464 kts | 271° |
| 2026-04-30 10:12 | 22.07328 | 94.44853 | 35842 ft | 463 kts | 271° |
| 2026-04-30 10:13 | 22.07862 | 94.37953 | 35851 ft | 461 kts | 271° |
| 2026-04-30 10:13 | 22.08392 | 94.31038 | 35841 ft | 461 kts | 271° |
| 2026-04-30 10:14 | 22.08917 | 94.24186 | 35851 ft | 461 kts | 271° |
| 2026-04-30 10:14 | 22.09707 | 94.13817 | 36804 ft | 457 kts | 271° |
| 2026-04-30 10:15 | 22.09966 | 94.10417 | 37347 ft | 452 kts | 271° |
| 2026-04-30 10:15 | 22.10220 | 94.07053 | 37809 ft | 448 kts | 271° |
| 2026-04-30 10:15 | 22.10720 | 94.00400 | 37851 ft | 443 kts | 271° |
| 2026-04-30 10:16 | 22.11211 | 93.93827 | 37877 ft | 438 kts | 271° |
| 2026-04-30 10:17 | 22.11938 | 93.83991 | 37885 ft | 439 kts | 271° |
| 2026-04-30 10:17 | 22.12664 | 93.74125 | 37927 ft | 439 kts | 271° |
| 2026-04-30 10:18 | 22.13145 | 93.67542 | 37916 ft | 441 kts | 271° |
| 2026-04-30 10:19 | 22.13861 | 93.57649 | 37912 ft | 444 kts | 271° |
| 2026-04-30 10:19 | 22.14340 | 93.51006 | 37919 ft | 444 kts | 271° |
| 2026-04-30 10:20 | 22.14817 | 93.44352 | 37938 ft | 445 kts | 271° |
| 2026-04-30 10:20 | 22.15529 | 93.34360 | 37962 ft | 444 kts | 271° |
| 2026-04-30 10:21 | 22.15999 | 93.27705 | 37958 ft | 444 kts | 271° |
| 2026-04-30 10:21 | 22.16464 | 93.21084 | 37959 ft | 444 kts | 270° |
| 2026-04-30 10:22 | 22.16927 | 93.14449 | 37943 ft | 443 kts | 271° |
| 2026-04-30 10:22 | 22.17388 | 93.07818 | 37935 ft | 443 kts | 270° |
| 2026-04-30 10:23 | 22.17845 | 93.01199 | 37923 ft | 441 kts | 270° |
| 2026-04-30 10:23 | 22.18294 | 92.94637 | 37930 ft | 441 kts | 270° |
| 2026-04-30 10:24 | 22.18745 | 92.88012 | 37898 ft | 442 kts | 270° |
| 2026-04-30 10:24 | 22.19191 | 92.81430 | 37903 ft | 442 kts | 270° |
| 2026-04-30 10:25 | 22.19638 | 92.74808 | 37916 ft | 442 kts | 270° |
| 2026-04-30 10:25 | 22.20082 | 92.68172 | 37903 ft | 443 kts | 270° |
| 2026-04-30 10:26 | 22.20517 | 92.61533 | 37896 ft | 444 kts | 270° |
| 2026-04-30 10:26 | 22.20924 | 92.54931 | 37880 ft | 444 kts | 270° |
| 2026-04-30 10:27 | 22.21332 | 92.48260 | 37885 ft | 446 kts | 270° |
| 2026-04-30 10:27 | 22.21741 | 92.41564 | 37878 ft | 447 kts | 270° |
| 2026-04-30 10:28 | 22.22149 | 92.34868 | 37874 ft | 446 kts | 270° |
| 2026-04-30 10:28 | 22.22551 | 92.28223 | 37901 ft | 446 kts | 270° |
| 2026-04-30 10:29 | 22.23004 | 92.21534 | 37864 ft | 447 kts | 271° |
| 2026-04-30 10:29 | 22.23504 | 92.14851 | 37867 ft | 446 kts | 271° |
| 2026-04-30 10:30 | 22.23994 | 92.08191 | 37864 ft | 444 kts | 271° |
| 2026-04-30 10:30 | 22.24472 | 92.01536 | 37865 ft | 444 kts | 271° |
| 2026-04-30 10:31 | 22.24943 | 91.94925 | 37865 ft | 443 kts | 271° |
| 2026-04-30 10:31 | 22.25414 | 91.88275 | 37871 ft | 444 kts | 271° |
| 2026-04-30 10:32 | 22.25890 | 91.81615 | 37859 ft | 446 kts | 272° |
| 2026-04-30 10:32 | 22.26623 | 91.74946 | 37860 ft | 448 kts | 274° |
| 2026-04-30 10:33 | 22.27447 | 91.68293 | 37872 ft | 451 kts | 274° |
| 2026-04-30 10:33 | 22.28241 | 91.61553 | 37870 ft | 453 kts | 273° |
| 2026-04-30 10:34 | 22.29014 | 91.54778 | 37865 ft | 456 kts | 273° |
| 2026-04-30 10:34 | 22.29783 | 91.47989 | 37854 ft | 453 kts | 273° |
| 2026-04-30 10:35 | 22.30545 | 91.41262 | 37838 ft | 449 kts | 273° |
| 2026-04-30 10:35 | 22.31312 | 91.34619 | 37838 ft | 446 kts | 274° |
| 2026-04-30 10:36 | 22.32140 | 91.27979 | 37838 ft | 445 kts | 274° |
| 2026-04-30 10:36 | 22.32966 | 91.21399 | 37830 ft | 444 kts | 274° |
| 2026-04-30 10:37 | 22.33788 | 91.14779 | 37835 ft | 445 kts | 274° |
| 2026-04-30 10:37 | 22.34605 | 91.08127 | 37835 ft | 447 kts | 274° |
| 2026-04-30 10:38 | 22.35422 | 91.01453 | 37826 ft | 449 kts | 274° |
| 2026-04-30 10:38 | 22.36241 | 90.94738 | 37829 ft | 451 kts | 274° |
| 2026-04-30 10:39 | 22.37058 | 90.88016 | 37820 ft | 451 kts | 274° |
| 2026-04-30 10:39 | 22.37875 | 90.81279 | 37811 ft | 452 kts | 274° |
| 2026-04-30 10:40 | 22.38683 | 90.74591 | 37820 ft | 452 kts | 274° |
| 2026-04-30 10:40 | 22.39495 | 90.67836 | 37818 ft | 453 kts | 274° |
| 2026-04-30 10:41 | 22.40308 | 90.61060 | 37805 ft | 454 kts | 274° |
| 2026-04-30 10:41 | 22.41118 | 90.54276 | 37802 ft | 456 kts | 274° |
| 2026-04-30 10:42 | 22.41927 | 90.47477 | 37805 ft | 456 kts | 274° |
| 2026-04-30 10:42 | 22.42734 | 90.40672 | 37800 ft | 456 kts | 274° |
| 2026-04-30 10:43 | 22.43534 | 90.33897 | 37809 ft | 458 kts | 274° |
| 2026-04-30 10:43 | 22.44341 | 90.27042 | 37805 ft | 461 kts | 274° |
| 2026-04-30 10:44 | 22.45149 | 90.20148 | 37802 ft | 463 kts | 274° |
| 2026-04-30 10:44 | 22.45959 | 90.13219 | 37816 ft | 465 kts | 274° |
| 2026-04-30 10:45 | 22.46763 | 90.06321 | 37798 ft | 465 kts | 274° |
| 2026-04-30 10:45 | 22.47568 | 89.99382 | 37827 ft | 464 kts | 275° |
| 2026-04-30 10:46 | 22.48355 | 89.92559 | 37786 ft | 453 kts | 276° |
| 2026-04-30 10:46 | 22.49134 | 89.85799 | 37791 ft | 453 kts | 276° |
| 2026-04-30 10:47 | 22.49911 | 89.79029 | 37791 ft | 453 kts | 276° |
| 2026-04-30 10:47 | 22.50684 | 89.72254 | 37788 ft | 454 kts | 276° |
| 2026-04-30 10:48 | 22.51450 | 89.65524 | 37790 ft | 454 kts | 276° |
| 2026-04-30 10:48 | 22.52220 | 89.58737 | 37789 ft | 454 kts | 276° |
| 2026-04-30 10:49 | 22.52986 | 89.51951 | 37783 ft | 454 kts | 276° |
| 2026-04-30 10:49 | 22.53749 | 89.45170 | 37784 ft | 454 kts | 276° |
| 2026-04-30 10:50 | 22.54510 | 89.38381 | 37786 ft | 454 kts | 276° |
| 2026-04-30 10:50 | 22.55268 | 89.31585 | 37786 ft | 455 kts | 276° |
| 2026-04-30 10:51 | 22.56020 | 89.24824 | 37784 ft | 455 kts | 276° |
| 2026-04-30 10:51 | 22.56773 | 89.18027 | 37791 ft | 454 kts | 276° |
| 2026-04-30 10:52 | 22.57523 | 89.11233 | 37784 ft | 453 kts | 276° |
| 2026-04-30 10:52 | 22.58262 | 89.04504 | 37785 ft | 452 kts | 276° |
| 2026-04-30 10:53 | 22.59002 | 88.97752 | 37787 ft | 451 kts | 276° |
| 2026-04-30 10:53 | 22.59879 | 88.91007 | 37784 ft | 451 kts | 279° |
| 2026-04-30 10:54 | 22.61018 | 88.84363 | 37774 ft | 451 kts | 280° |
| 2026-04-30 10:54 | 22.62173 | 88.77700 | 37790 ft | 452 kts | 280° |
| 2026-04-30 10:55 | 22.63314 | 88.70988 | 37787 ft | 453 kts | 279° |
| 2026-04-30 10:55 | 22.64439 | 88.64295 | 37779 ft | 454 kts | 279° |
| 2026-04-30 10:56 | 22.65385 | 88.58654 | 37774 ft | 455 kts | 279° |
| 2026-04-30 10:56 | 22.66698 | 88.50807 | 37772 ft | 456 kts | 279° |
| 2026-04-30 10:57 | 22.67621 | 88.45182 | 37786 ft | 456 kts | 278° |
| 2026-04-30 10:57 | 22.68187 | 88.38354 | 37782 ft | 454 kts | 274° |
| 2026-04-30 10:58 | 22.68607 | 88.31532 | 37774 ft | 453 kts | 274° |
| 2026-04-30 10:58 | 22.69034 | 88.24732 | 37777 ft | 452 kts | 274° |
| 2026-04-30 10:59 | 22.69473 | 88.17946 | 37779 ft | 451 kts | 274° |
| 2026-04-30 10:59 | 22.69911 | 88.11214 | 37780 ft | 450 kts | 274° |
| 2026-04-30 11:00 | 22.70349 | 88.04439 | 37779 ft | 450 kts | 275° |
| 2026-04-30 11:00 | 22.70785 | 87.97659 | 37781 ft | 451 kts | 275° |
| 2026-04-30 11:01 | 22.71218 | 87.90888 | 37780 ft | 453 kts | 275° |
| 2026-04-30 11:01 | 22.71649 | 87.84074 | 37776 ft | 454 kts | 275° |
| 2026-04-30 11:02 | 22.72079 | 87.77244 | 37776 ft | 454 kts | 275° |
| 2026-04-30 11:02 | 22.72503 | 87.70452 | 37764 ft | 455 kts | 275° |
| 2026-04-30 11:03 | 22.72927 | 87.63621 | 37767 ft | 453 kts | 275° |
| 2026-04-30 11:04 | 22.73555 | 87.53419 | 37769 ft | 451 kts | 275° |
| 2026-04-30 11:04 | 22.73968 | 87.46642 | 37770 ft | 449 kts | 275° |
| 2026-04-30 11:05 | 22.74375 | 87.39934 | 37762 ft | 448 kts | 275° |
| 2026-04-30 11:05 | 22.74780 | 87.33195 | 37770 ft | 448 kts | 275° |
| 2026-04-30 11:06 | 22.75182 | 87.26464 | 37771 ft | 445 kts | 275° |
| 2026-04-30 11:06 | 22.75575 | 87.19829 | 37764 ft | 442 kts | 275° |
| 2026-04-30 11:07 | 22.75968 | 87.13182 | 37761 ft | 441 kts | 274° |
| 2026-04-30 11:07 | 22.76357 | 87.06528 | 37784 ft | 442 kts | 274° |
| 2026-04-30 11:08 | 22.76744 | 86.99856 | 37784 ft | 444 kts | 274° |
| 2026-04-30 11:08 | 22.77127 | 86.93200 | 37765 ft | 445 kts | 274° |
| 2026-04-30 11:09 | 22.77510 | 86.86513 | 37785 ft | 444 kts | 274° |
| 2026-04-30 11:09 | 22.77890 | 86.79819 | 37791 ft | 443 kts | 274° |
| 2026-04-30 11:10 | 22.78265 | 86.73164 | 37796 ft | 442 kts | 274° |
| 2026-04-30 11:10 | 22.78635 | 86.66557 | 37808 ft | 441 kts | 274° |
| 2026-04-30 11:11 | 22.79004 | 86.59911 | 37816 ft | 441 kts | 274° |
| 2026-04-30 11:11 | 22.79371 | 86.53261 | 37791 ft | 445 kts | 273° |
| 2026-04-30 11:12 | 22.79742 | 86.46477 | 37826 ft | 456 kts | 273° |
| 2026-04-30 11:12 | 22.80118 | 86.39548 | 37818 ft | 462 kts | 273° |
| 2026-04-30 11:13 | 22.80491 | 86.32616 | 37823 ft | 463 kts | 273° |
| 2026-04-30 11:13 | 22.80865 | 86.25639 | 37825 ft | 462 kts | 273° |
| 2026-04-30 11:14 | 22.80894 | 86.18686 | 37781 ft | 460 kts | 265° |
| 2026-04-30 11:14 | 22.79903 | 86.11889 | 37771 ft | 459 kts | 256° |
| 2026-04-30 11:15 | 22.78170 | 86.05240 | 37781 ft | 458 kts | 254° |
| 2026-04-30 11:15 | 22.76372 | 85.98605 | 37794 ft | 458 kts | 254° |
| 2026-04-30 11:16 | 22.74595 | 85.91979 | 37807 ft | 458 kts | 254° |
| 2026-04-30 11:16 | 22.72844 | 85.85390 | 37802 ft | 458 kts | 254° |
| 2026-04-30 11:17 | 22.71082 | 85.78750 | 37832 ft | 459 kts | 257° |
| 2026-04-30 11:17 | 22.69312 | 85.72076 | 37859 ft | 462 kts | 257° |
| 2026-04-30 11:18 | 22.67537 | 85.65401 | 37859 ft | 464 kts | 256° |
| 2026-04-30 11:18 | 22.64835 | 85.55275 | 37852 ft | 467 kts | 256° |
| 2026-04-30 11:19 | 22.63027 | 85.48514 | 37849 ft | 467 kts | 256° |
| 2026-04-30 11:19 | 22.61225 | 85.41790 | 37856 ft | 467 kts | 256° |
| 2026-04-30 11:20 | 22.59413 | 85.35039 | 37851 ft | 467 kts | 255° |
| 2026-04-30 11:20 | 22.57600 | 85.28296 | 37858 ft | 465 kts | 255° |
| 2026-04-30 11:21 | 22.55788 | 85.21568 | 37858 ft | 465 kts | 255° |
| 2026-04-30 11:21 | 22.53989 | 85.14900 | 37855 ft | 464 kts | 255° |
| 2026-04-30 11:22 | 22.52176 | 85.08193 | 37852 ft | 464 kts | 255° |
| 2026-04-30 11:22 | 22.50370 | 85.01525 | 37830 ft | 463 kts | 255° |
| 2026-04-30 11:23 | 22.48560 | 84.94850 | 37800 ft | 462 kts | 255° |
| 2026-04-30 11:24 | 22.45839 | 84.84845 | 37781 ft | 461 kts | 255° |
| 2026-04-30 11:24 | 22.44029 | 84.78202 | 37775 ft | 461 kts | 255° |
| 2026-04-30 11:25 | 22.41314 | 84.68260 | 37786 ft | 461 kts | 255° |
| 2026-04-30 11:26 | 22.37657 | 84.54909 | 37803 ft | 464 kts | 256° |
| 2026-04-30 11:26 | 22.35815 | 84.48198 | 37801 ft | 466 kts | 256° |
| 2026-04-30 11:27 | 22.33978 | 84.41523 | 37807 ft | 465 kts | 256° |
| 2026-04-30 11:27 | 22.32130 | 84.34825 | 37795 ft | 464 kts | 256° |
| 2026-04-30 11:28 | 22.29373 | 84.24839 | 37806 ft | 467 kts | 256° |
| 2026-04-30 11:29 | 22.27492 | 84.18036 | 37807 ft | 477 kts | 256° |
| 2026-04-30 11:29 | 22.24628 | 84.07716 | 37775 ft | 479 kts | 256° |
| 2026-04-30 11:30 | 22.21763 | 83.97423 | 37771 ft | 477 kts | 256° |
| 2026-04-30 11:31 | 22.19851 | 83.90566 | 37728 ft | 475 kts | 256° |
| 2026-04-30 11:31 | 22.17958 | 83.83791 | 37766 ft | 474 kts | 256° |
| 2026-04-30 11:32 | 22.16055 | 83.76985 | 37772 ft | 473 kts | 256° |
| 2026-04-30 11:32 | 22.14148 | 83.70180 | 37767 ft | 474 kts | 256° |
| 2026-04-30 11:33 | 22.11276 | 83.59953 | 37747 ft | 475 kts | 256° |
| 2026-04-30 11:33 | 22.09354 | 83.53124 | 37787 ft | 476 kts | 257° |
| 2026-04-30 11:34 | 22.07432 | 83.46304 | 37751 ft | 477 kts | 259° |
| 2026-04-30 11:34 | 22.05585 | 83.39420 | 37724 ft | 478 kts | 260° |
| 2026-04-30 11:35 | 22.03781 | 83.32516 | 37735 ft | 478 kts | 260° |
| 2026-04-30 11:35 | 22.01979 | 83.25661 | 37718 ft | 478 kts | 260° |
| 2026-04-30 11:36 | 22.00151 | 83.18761 | 37730 ft | 479 kts | 259° |
| 2026-04-30 11:36 | 21.98313 | 83.11856 | 37712 ft | 478 kts | 261° |
| 2026-04-30 11:37 | 21.96474 | 83.04959 | 37716 ft | 478 kts | 261° |
| 2026-04-30 11:37 | 21.94649 | 82.98122 | 37709 ft | 478 kts | 261° |
| 2026-04-30 11:38 | 21.92809 | 82.91240 | 37703 ft | 477 kts | 261° |
| 2026-04-30 11:38 | 21.90969 | 82.84369 | 37694 ft | 477 kts | 261° |
| 2026-04-30 11:39 | 21.89126 | 82.77502 | 37682 ft | 477 kts | 261° |
| 2026-04-30 11:39 | 21.87282 | 82.70645 | 37701 ft | 477 kts | 261° |
| 2026-04-30 11:40 | 21.85434 | 82.63781 | 37676 ft | 477 kts | 261° |
| 2026-04-30 11:40 | 21.83593 | 82.56959 | 37680 ft | 477 kts | 261° |
| 2026-04-30 11:41 | 21.81738 | 82.50094 | 37676 ft | 478 kts | 261° |
| 2026-04-30 11:41 | 21.79877 | 82.43222 | 37691 ft | 478 kts | 261° |
| 2026-04-30 11:42 | 21.78011 | 82.36343 | 37678 ft | 478 kts | 261° |
| 2026-04-30 11:42 | 21.76142 | 82.29464 | 37672 ft | 478 kts | 261° |
| 2026-04-30 11:43 | 21.74282 | 82.22631 | 37676 ft | 478 kts | 261° |
| 2026-04-30 11:43 | 21.72406 | 82.15751 | 37675 ft | 479 kts | 261° |
| 2026-04-30 11:44 | 21.70845 | 82.10036 | 37676 ft | 479 kts | 261° |
| 2026-04-30 11:44 | 21.68963 | 82.03152 | 37681 ft | 479 kts | 261° |
| 2026-04-30 11:45 | 21.67089 | 81.96326 | 37677 ft | 478 kts | 261° |
| 2026-04-30 11:45 | 21.65191 | 81.89465 | 37672 ft | 478 kts | 261° |
| 2026-04-30 11:46 | 21.63291 | 81.82607 | 37684 ft | 478 kts | 261° |
| 2026-04-30 11:46 | 21.61389 | 81.75746 | 37680 ft | 478 kts | 261° |
| 2026-04-30 11:47 | 21.59493 | 81.68915 | 37661 ft | 479 kts | 261° |
| 2026-04-30 11:47 | 21.57584 | 81.62051 | 37685 ft | 479 kts | 260° |
| 2026-04-30 11:48 | 21.55672 | 81.55185 | 37679 ft | 480 kts | 260° |
| 2026-04-30 11:48 | 21.53748 | 81.48293 | 37680 ft | 481 kts | 260° |
| 2026-04-30 11:49 | 21.51835 | 81.41452 | 37681 ft | 481 kts | 260° |
| 2026-04-30 11:49 | 21.49901 | 81.34545 | 37681 ft | 482 kts | 260° |
| 2026-04-30 11:50 | 21.47965 | 81.27645 | 37675 ft | 482 kts | 260° |
| 2026-04-30 11:50 | 21.46039 | 81.20792 | 37683 ft | 481 kts | 260° |
| 2026-04-30 11:51 | 21.44097 | 81.13893 | 37693 ft | 481 kts | 260° |
| 2026-04-30 11:51 | 21.42155 | 81.07007 | 37696 ft | 481 kts | 260° |
| 2026-04-30 11:52 | 21.40213 | 81.00132 | 37709 ft | 481 kts | 260° |
| 2026-04-30 11:52 | 21.38282 | 80.93305 | 37710 ft | 481 kts | 260° |
| 2026-04-30 11:53 | 21.36336 | 80.86434 | 37708 ft | 481 kts | 259° |
| 2026-04-30 11:53 | 21.34386 | 80.79563 | 37720 ft | 481 kts | 259° |
| 2026-04-30 11:54 | 21.32432 | 80.72692 | 37719 ft | 482 kts | 259° |
| 2026-04-30 11:54 | 21.30480 | 80.65840 | 37722 ft | 482 kts | 259° |
| 2026-04-30 11:55 | 21.28515 | 80.58953 | 37720 ft | 483 kts | 259° |
| 2026-04-30 11:55 | 21.26546 | 80.52057 | 37703 ft | 483 kts | 259° |
| 2026-04-30 11:56 | 21.24578 | 80.45182 | 37713 ft | 482 kts | 258° |
| 2026-04-30 11:56 | 21.22609 | 80.38311 | 37712 ft | 482 kts | 258° |
| 2026-04-30 11:57 | 21.20638 | 80.31444 | 37711 ft | 482 kts | 258° |
| 2026-04-30 11:57 | 21.18664 | 80.24581 | 37686 ft | 482 kts | 258° |
| 2026-04-30 11:58 | 21.16704 | 80.17774 | 37709 ft | 481 kts | 258° |
| 2026-04-30 11:58 | 21.14726 | 80.10921 | 37711 ft | 479 kts | 258° |
| 2026-04-30 11:59 | 21.12756 | 80.04105 | 37703 ft | 478 kts | 258° |
| 2026-04-30 11:59 | 21.10790 | 79.97312 | 37700 ft | 477 kts | 258° |
| 2026-04-30 12:00 | 21.08837 | 79.90576 | 37699 ft | 476 kts | 258° |
| 2026-04-30 12:00 | 21.06872 | 79.83807 | 37695 ft | 476 kts | 258° |
| 2026-04-30 12:01 | 21.04904 | 79.77040 | 37679 ft | 476 kts | 258° |
| 2026-04-30 12:01 | 21.02925 | 79.70246 | 37697 ft | 478 kts | 258° |
| 2026-04-30 12:02 | 21.00951 | 79.63481 | 37694 ft | 480 kts | 258° |
| 2026-04-30 12:02 | 20.98953 | 79.56643 | 37694 ft | 481 kts | 258° |
| 2026-04-30 12:03 | 20.95944 | 79.46371 | 37693 ft | 483 kts | 258° |
| 2026-04-30 12:04 | 20.93931 | 79.39512 | 37690 ft | 483 kts | 258° |
| 2026-04-30 12:04 | 20.91916 | 79.32655 | 37693 ft | 483 kts | 258° |
| 2026-04-30 12:05 | 20.89925 | 79.25856 | 37689 ft | 482 kts | 258° |
| 2026-04-30 12:05 | 20.88059 | 79.18971 | 37694 ft | 480 kts | 259° |
| 2026-04-30 12:06 | 20.86248 | 79.12095 | 37694 ft | 480 kts | 259° |
| 2026-04-30 12:06 | 20.84424 | 79.05233 | 37692 ft | 480 kts | 259° |
| 2026-04-30 12:07 | 20.82591 | 78.98411 | 37702 ft | 479 kts | 259° |
| 2026-04-30 12:07 | 20.80742 | 78.91560 | 37700 ft | 479 kts | 259° |
| 2026-04-30 12:08 | 20.78892 | 78.84713 | 37699 ft | 480 kts | 259° |
| 2026-04-30 12:08 | 20.77040 | 78.77867 | 37691 ft | 480 kts | 259° |
| 2026-04-30 12:09 | 20.75183 | 78.71013 | 37701 ft | 479 kts | 259° |
| 2026-04-30 12:09 | 20.73326 | 78.64173 | 37703 ft | 480 kts | 259° |
| 2026-04-30 12:10 | 20.71465 | 78.57327 | 37708 ft | 479 kts | 259° |
| 2026-04-30 12:10 | 20.69602 | 78.50487 | 37703 ft | 480 kts | 259° |
| 2026-04-30 12:11 | 20.67746 | 78.43685 | 37707 ft | 480 kts | 259° |
| 2026-04-30 12:11 | 20.65874 | 78.36837 | 37709 ft | 480 kts | 259° |
| 2026-04-30 12:12 | 20.64001 | 78.29995 | 37714 ft | 480 kts | 259° |
| 2026-04-30 12:12 | 20.62124 | 78.23148 | 37713 ft | 480 kts | 259° |
| 2026-04-30 12:13 | 20.60245 | 78.16309 | 37716 ft | 480 kts | 258° |
| 2026-04-30 12:13 | 20.58365 | 78.09471 | 37722 ft | 480 kts | 258° |
| 2026-04-30 12:14 | 20.56480 | 78.02632 | 37724 ft | 480 kts | 258° |
| 2026-04-30 12:14 | 20.54627 | 77.95792 | 37724 ft | 479 kts | 259° |
| 2026-04-30 12:15 | 20.52796 | 77.88993 | 37724 ft | 480 kts | 259° |
| 2026-04-30 12:15 | 20.50958 | 77.82144 | 37732 ft | 480 kts | 259° |
| 2026-04-30 12:16 | 20.49136 | 77.75274 | 37731 ft | 480 kts | 259° |
| 2026-04-30 12:16 | 20.47315 | 77.68418 | 37738 ft | 480 kts | 259° |
| 2026-04-30 12:17 | 20.44582 | 77.58166 | 37727 ft | 481 kts | 259° |
| 2026-04-30 12:17 | 20.42744 | 77.51295 | 37745 ft | 481 kts | 259° |
| 2026-04-30 12:18 | 20.40917 | 77.44473 | 37752 ft | 481 kts | 259° |
| 2026-04-30 12:18 | 20.39076 | 77.37613 | 37752 ft | 481 kts | 259° |
| 2026-04-30 12:19 | 20.37230 | 77.30743 | 37755 ft | 481 kts | 258° |
| 2026-04-30 12:19 | 20.35382 | 77.23878 | 37767 ft | 481 kts | 258° |
| 2026-04-30 12:20 | 20.33545 | 77.17065 | 37777 ft | 481 kts | 258° |
| 2026-04-30 12:20 | 20.31693 | 77.10212 | 37748 ft | 481 kts | 258° |
| 2026-04-30 12:21 | 20.29836 | 77.03347 | 37771 ft | 482 kts | 258° |
| 2026-04-30 12:21 | 20.27976 | 76.96484 | 37776 ft | 482 kts | 258° |
| 2026-04-30 12:22 | 20.26124 | 76.89662 | 37783 ft | 482 kts | 258° |
| 2026-04-30 12:22 | 20.24254 | 76.82786 | 37775 ft | 483 kts | 258° |
| 2026-04-30 12:23 | 20.22385 | 76.75924 | 37783 ft | 483 kts | 258° |
| 2026-04-30 12:23 | 20.20510 | 76.69053 | 37787 ft | 483 kts | 258° |
| 2026-04-30 12:24 | 20.18633 | 76.62185 | 37801 ft | 483 kts | 258° |
| 2026-04-30 12:24 | 20.16765 | 76.55361 | 37798 ft | 483 kts | 258° |
| 2026-04-30 12:25 | 20.14880 | 76.48487 | 37801 ft | 483 kts | 258° |
| 2026-04-30 12:25 | 20.12998 | 76.41634 | 37811 ft | 482 kts | 258° |
| 2026-04-30 12:26 | 20.11113 | 76.34780 | 37810 ft | 482 kts | 258° |
| 2026-04-30 12:26 | 20.09227 | 76.27937 | 37809 ft | 482 kts | 258° |
| 2026-04-30 12:27 | 20.07338 | 76.21093 | 37815 ft | 481 kts | 258° |
| 2026-04-30 12:27 | 20.05457 | 76.14287 | 37805 ft | 481 kts | 258° |
| 2026-04-30 12:28 | 20.03565 | 76.07449 | 37811 ft | 481 kts | 257° |
| 2026-04-30 12:28 | 20.01990 | 76.01767 | 37811 ft | 482 kts | 257° |
| 2026-04-30 12:29 | 19.99782 | 75.93818 | 37824 ft | 482 kts | 257° |
| 2026-04-30 12:29 | 19.97883 | 75.86983 | 37819 ft | 482 kts | 257° |
| 2026-04-30 12:30 | 19.96288 | 75.81247 | 37825 ft | 483 kts | 257° |
| 2026-04-30 12:30 | 19.94392 | 75.74442 | 37821 ft | 483 kts | 257° |
| 2026-04-30 12:31 | 19.92479 | 75.67586 | 37832 ft | 483 kts | 257° |
| 2026-04-30 12:31 | 19.90564 | 75.60734 | 37832 ft | 483 kts | 257° |
| 2026-04-30 12:32 | 19.88658 | 75.53925 | 37834 ft | 483 kts | 257° |
| 2026-04-30 12:32 | 19.86734 | 75.47060 | 37818 ft | 483 kts | 257° |
| 2026-04-30 12:33 | 19.84814 | 75.40222 | 37822 ft | 483 kts | 256° |
| 2026-04-30 12:33 | 19.82889 | 75.33378 | 37834 ft | 483 kts | 256° |
| 2026-04-30 12:34 | 19.80972 | 75.26575 | 37836 ft | 483 kts | 256° |
| 2026-04-30 12:34 | 19.79044 | 75.19741 | 37832 ft | 483 kts | 256° |
| 2026-04-30 12:35 | 19.77113 | 75.12911 | 37841 ft | 483 kts | 256° |
| 2026-04-30 12:35 | 19.75191 | 75.06118 | 37847 ft | 483 kts | 256° |
| 2026-04-30 12:36 | 19.73254 | 74.99285 | 37843 ft | 482 kts | 256° |
| 2026-04-30 12:36 | 19.72285 | 74.95869 | 37529 ft | 486 kts | 256° |
| 2026-04-30 12:36 | 19.71302 | 74.92404 | 36424 ft | 495 kts | 256° |
| 2026-04-30 12:37 | 19.70306 | 74.88897 | 35642 ft | 493 kts | 257° |
| 2026-04-30 12:37 | 19.69323 | 74.85448 | 34764 ft | 494 kts | 257° |
| 2026-04-30 12:37 | 19.68328 | 74.81955 | 33847 ft | 494 kts | 257° |
| 2026-04-30 12:37 | 19.67331 | 74.78457 | 32796 ft | 496 kts | 257° |
| 2026-04-30 12:38 | 19.66333 | 74.74955 | 31813 ft | 497 kts | 257° |
| 2026-04-30 12:38 | 19.65326 | 74.71424 | 30784 ft | 498 kts | 257° |
| 2026-04-30 12:38 | 19.64320 | 74.67903 | 29991 ft | 496 kts | 257° |
| 2026-04-30 12:38 | 19.63321 | 74.64414 | 29162 ft | 492 kts | 257° |
| 2026-04-30 12:39 | 19.62345 | 74.61005 | 28431 ft | 486 kts | 257° |
| 2026-04-30 12:39 | 19.61368 | 74.57593 | 27735 ft | 479 kts | 258° |
| 2026-04-30 12:39 | 19.60405 | 74.54229 | 27060 ft | 473 kts | 258° |
| 2026-04-30 12:39 | 19.59478 | 74.50901 | 26401 ft | 467 kts | 258° |
| 2026-04-30 12:40 | 19.58583 | 74.47611 | 25770 ft | 461 kts | 259° |
| 2026-04-30 12:40 | 19.57706 | 74.44359 | 25121 ft | 456 kts | 259° |
| 2026-04-30 12:40 | 19.56839 | 74.41140 | 24481 ft | 452 kts | 259° |
| 2026-04-30 12:40 | 19.55976 | 74.37948 | 23852 ft | 448 kts | 259° |
| 2026-04-30 12:41 | 19.55129 | 74.34826 | 23182 ft | 444 kts | 259° |
| 2026-04-30 12:41 | 19.54275 | 74.31687 | 22483 ft | 439 kts | 259° |
| 2026-04-30 12:41 | 19.53432 | 74.28596 | 21836 ft | 433 kts | 259° |
| 2026-04-30 12:41 | 19.52600 | 74.25548 | 21215 ft | 428 kts | 258° |
| 2026-04-30 12:42 | 19.51776 | 74.22534 | 20617 ft | 423 kts | 258° |
| 2026-04-30 12:42 | 19.50961 | 74.19554 | 20035 ft | 419 kts | 258° |
| 2026-04-30 12:42 | 19.50152 | 74.16597 | 19447 ft | 415 kts | 257° |
| 2026-04-30 12:42 | 19.49360 | 74.13704 | 18861 ft | 412 kts | 257° |
| 2026-04-30 12:43 | 19.48564 | 74.10795 | 18270 ft | 409 kts | 257° |
| 2026-04-30 12:43 | 19.47773 | 74.07909 | 17618 ft | 406 kts | 256° |
| 2026-04-30 12:43 | 19.46987 | 74.05040 | 17034 ft | 403 kts | 256° |
| 2026-04-30 12:43 | 19.46214 | 74.02229 | 16790 ft | 390 kts | 256° |
| 2026-04-30 12:44 | 19.45466 | 73.99520 | 16607 ft | 377 kts | 257° |
| 2026-04-30 12:44 | 19.44744 | 73.96898 | 16445 ft | 364 kts | 257° |
| 2026-04-30 12:44 | 19.44048 | 73.94366 | 16297 ft | 352 kts | 257° |
| 2026-04-30 12:44 | 19.43376 | 73.91917 | 16156 ft | 341 kts | 257° |
| 2026-04-30 12:45 | 19.42722 | 73.89541 | 16008 ft | 330 kts | 256° |
| 2026-04-30 12:45 | 19.42079 | 73.87247 | 15857 ft | 320 kts | 255° |
| 2026-04-30 12:45 | 19.41216 | 73.85107 | 15549 ft | 319 kts | 246° |
| 2026-04-30 12:45 | 19.40154 | 73.83045 | 15241 ft | 317 kts | 244° |
| 2026-04-30 12:46 | 19.39061 | 73.81024 | 14915 ft | 315 kts | 243° |
| 2026-04-30 12:46 | 19.37978 | 73.79017 | 14585 ft | 313 kts | 243° |
| 2026-04-30 12:46 | 19.36913 | 73.77020 | 14258 ft | 310 kts | 243° |
| 2026-04-30 12:46 | 19.35866 | 73.75031 | 13944 ft | 308 kts | 243° |
| 2026-04-30 12:47 | 19.34832 | 73.73054 | 13621 ft | 306 kts | 243° |
| 2026-04-30 12:47 | 19.33809 | 73.71088 | 13277 ft | 304 kts | 244° |
| 2026-04-30 12:47 | 19.32798 | 73.69135 | 12952 ft | 301 kts | 244° |
| 2026-04-30 12:47 | 19.31795 | 73.67196 | 12628 ft | 299 kts | 244° |
| 2026-04-30 12:48 | 19.30803 | 73.65274 | 12311 ft | 296 kts | 243° |
| 2026-04-30 12:48 | 19.29830 | 73.63389 | 11996 ft | 293 kts | 244° |
| 2026-04-30 12:48 | 19.28852 | 73.61495 | 11683 ft | 291 kts | 244° |
| 2026-04-30 12:48 | 19.27886 | 73.59625 | 11395 ft | 289 kts | 244° |
| 2026-04-30 12:49 | 19.26928 | 73.57769 | 11092 ft | 286 kts | 244° |
| 2026-04-30 12:49 | 19.25975 | 73.55924 | 10799 ft | 284 kts | 244° |
| 2026-04-30 12:49 | 19.25029 | 73.54094 | 10499 ft | 282 kts | 244° |
| 2026-04-30 12:49 | 19.24094 | 73.52283 | 10196 ft | 280 kts | 244° |
| 2026-04-30 12:50 | 19.23174 | 73.50504 | 9914 ft | 277 kts | 244° |
| 2026-04-30 12:50 | 19.22252 | 73.48724 | 9615 ft | 275 kts | 244° |
| 2026-04-30 12:50 | 19.21340 | 73.46950 | 9298 ft | 271 kts | 246° |
| 2026-04-30 12:50 | 19.20647 | 73.45137 | 9130 ft | 262 kts | 253° |
| 2026-04-30 12:51 | 19.20103 | 73.43311 | 8885 ft | 260 kts | 255° |
| 2026-04-30 12:51 | 19.19581 | 73.41482 | 8632 ft | 259 kts | 255° |
| 2026-04-30 12:51 | 19.19056 | 73.39658 | 8373 ft | 259 kts | 255° |
| 2026-04-30 12:51 | 19.18530 | 73.37854 | 8104 ft | 260 kts | 255° |
| 2026-04-30 12:52 | 19.17984 | 73.36005 | 7809 ft | 260 kts | 255° |
| 2026-04-30 12:52 | 19.17447 | 73.34201 | 7555 ft | 261 kts | 255° |
| 2026-04-30 12:52 | 19.16900 | 73.32374 | 7289 ft | 260 kts | 255° |
| 2026-04-30 12:52 | 19.16352 | 73.30553 | 7008 ft | 258 kts | 255° |
| 2026-04-30 12:53 | 19.15807 | 73.28749 | 6729 ft | 256 kts | 254° |
| 2026-04-30 12:53 | 19.15265 | 73.26961 | 6476 ft | 255 kts | 255° |
| 2026-04-30 12:53 | 19.14726 | 73.25181 | 6194 ft | 253 kts | 255° |
| 2026-04-30 12:53 | 19.14190 | 73.23417 | 5931 ft | 251 kts | 254° |
| 2026-04-30 12:54 | 19.13660 | 73.21668 | 5654 ft | 249 kts | 254° |
| 2026-04-30 12:54 | 19.13131 | 73.19925 | 5355 ft | 248 kts | 254° |
| 2026-04-30 12:54 | 19.12601 | 73.18175 | 5158 ft | 254 kts | 254° |
| 2026-04-30 12:54 | 19.12053 | 73.16380 | 4930 ft | 255 kts | 254° |
| 2026-04-30 12:55 | 19.11510 | 73.14596 | 4672 ft | 254 kts | 254° |
| 2026-04-30 12:55 | 19.10970 | 73.12824 | 4410 ft | 252 kts | 254° |
| 2026-04-30 12:55 | 19.10440 | 73.11086 | 4139 ft | 250 kts | 254° |
| 2026-04-30 12:55 | 19.09911 | 73.09352 | 3825 ft | 240 kts | 253° |
| 2026-04-30 12:56 | 19.09417 | 73.07735 | 3544 ft | 222 kts | 255° |
| 2026-04-30 12:56 | 19.09155 | 73.06202 | 3275 ft | 205 kts | 267° |
| 2026-04-30 12:56 | 19.09110 | 73.04727 | 3019 ft | 197 kts | 270° |
| 2026-04-30 12:56 | 19.09097 | 73.03329 | 2808 ft | 189 kts | 270° |
| 2026-04-30 12:57 | 19.09080 | 73.01954 | 2568 ft | 182 kts | 269° |
| 2026-04-30 12:57 | 19.09063 | 73.00689 | 2354 ft | 163 kts | 269° |
| 2026-04-30 12:57 | 19.09048 | 72.99552 | 2132 ft | 146 kts | 269° |
| 2026-04-30 12:57 | 19.09034 | 72.98525 | 1980 ft | 137 kts | 269° |
| 2026-04-30 12:58 | 19.09019 | 72.97512 | 1786 ft | 137 kts | 268° |
| 2026-04-30 12:58 | 19.09006 | 72.96509 | 1619 ft | 137 kts | 268° |
| 2026-04-30 12:58 | 19.08993 | 72.95507 | 1467 ft | 139 kts | 268° |
| 2026-04-30 12:58 | 19.08978 | 72.94483 | 1265 ft | 140 kts | 269° |
| 2026-04-30 12:59 | 19.08963 | 72.93438 | 1073 ft | 142 kts | 269° |
| 2026-04-30 12:59 | 19.08950 | 72.92390 | 910 ft | 144 kts | 267° |
| 2026-04-30 12:59 | 19.08934 | 72.91333 | 730 ft | 143 kts | 266° |
| 2026-04-30 12:59 | 19.08920 | 72.90288 | 566 ft | 141 kts | 269° |
| 2026-04-30 13:00 | 19.08906 | 72.89254 | 371 ft | 139 kts | 267° |
| 2026-04-30 13:00 | 19.08903 | 72.88251 | 197 ft | 133 kts | 264° |
| 2026-04-30 13:00 | 19.08878 | 72.87295 | 59 ft | 127 kts | 267° |
| 2026-04-30 13:00 | 19.08866 | 72.86488 | 50 ft | 86 kts | 268° |
| 2026-04-30 13:01 | 19.08868 | 72.86035 | 46 ft | 39 kts | 277° |
| 2026-04-30 13:01 | 19.08935 | 72.85865 | 49 ft | 17 kts | 299° |
| 2026-04-30 13:01 | 19.09015 | 72.85834 | 48 ft | 12 kts | 44° |
| 2026-04-30 13:01 | 19.09031 | 72.85925 | 53 ft | 13 kts | 89° |
| 2026-04-30 13:02 | 19.09033 | 72.86031 | 53 ft | 17 kts | 89° |
| 2026-04-30 13:02 | 19.09035 | 72.86175 | 53 ft | 21 kts | 89° |
| 2026-04-30 13:02 | 19.09052 | 72.86324 | 47 ft | 21 kts | 58° |
| 2026-04-30 13:02 | 19.09147 | 72.86440 | 47 ft | 21 kts | 48° |
| 2026-04-30 13:03 | 19.09243 | 72.86555 | 51 ft | 21 kts | 49° |
| 2026-04-30 13:03 | 19.09338 | 72.86670 | 47 ft | 21 kts | 49° |
| 2026-04-30 13:03 | 19.09417 | 72.86777 | 47 ft | 14 kts | 71° |
| 2026-04-30 13:03 | 19.09400 | 72.86841 | 50 ft | 9 kts | 128° |
| 2026-04-30 13:04 | 19.09354 | 72.86891 | 48 ft | 9 kts | 136° |
| 2026-04-30 13:04 | 19.09308 | 72.86939 | 49 ft | 9 kts | 124° |
| 2026-04-30 13:04 | 19.09318 | 72.86992 | 49 ft | 7 kts | 61° |
| 2026-04-30 13:04 | 19.09333 | 72.87020 | 50 ft | 3 kts | 61° |
| 2026-04-30 13:05 | 19.09339 | 72.87033 | 50 ft | 0 kts | 60° |